sensor_id;sensor_type;location;lat;lon;timestamp;temperature;humidity
5304;DHT22;2674;49.722;10.892;2023-08-12T00:00:29;19.10;1.00
5304;DHT22;2674;49.722;10.892;2023-08-12T00:02:55;19.00;1.00
5304;DHT22;2674;49.722;10.892;2023-08-12T00:05:21;19.00;1.00
5304;DHT22;2674;49.722;10.892;2023-08-12T00:07:48;18.90;80.60
5304;DHT22;2674;49.722;10.892;2023-08-12T00:10:15;18.90;99.90
5304;DHT22;2674;49.722;10.892;2023-08-12T00:12:41;18.80;99.90
5304;DHT22;2674;49.722;10.892;2023-08-12T00:15:08;18.80;1.00
5304;DHT22;2674;49.722;10.892;2023-08-12T00:17:36;18.70;1.00
5304;DHT22;2674;49.722;10.892;2023-08-12T00:20:04;18.70;1.00
5304;DHT22;2674;49.722;10.892;2023-08-12T00:22:36;18.70;99.90
5304;DHT22;2674;49.722;10.892;2023-08-12T00:25:02;18.60;1.00
5304;DHT22;2674;49.722;10.892;2023-08-12T00:27:28;18.50;1.00
5304;DHT22;2674;49.722;10.892;2023-08-12T00:29:54;18.40;99.90
5304;DHT22;2674;49.722;10.892;2023-08-12T00:32:19;18.40;99.90
5304;DHT22;2674;49.722;10.892;2023-08-12T00:34:45;18.40;1.00
5304;DHT22;2674;49.722;10.892;2023-08-12T00:37:11;18.30;1.00
5304;DHT22;2674;49.722;10.892;2023-08-12T00:39:37;18.30;1.00
5304;DHT22;2674;49.722;10.892;2023-08-12T00:42:03;18.20;1.00
5304;DHT22;2674;49.722;10.892;2023-08-12T00:44:29;18.20;1.00
5304;DHT22;2674;49.722;10.892;2023-08-12T00:46:54;18.20;1.00
5304;DHT22;2674;49.722;10.892;2023-08-12T00:49:22;18.20;1.00
5304;DHT22;2674;49.722;10.892;2023-08-12T00:51:49;18.20;1.00
5304;DHT22;2674;49.722;10.892;2023-08-12T00:54:16;18.20;1.00
5304;DHT22;2674;49.722;10.892;2023-08-12T00:56:43;18.30;1.00
5304;DHT22;2674;49.722;10.892;2023-08-12T00:59:10;18.20;1.00
5304;DHT22;2674;49.722;10.892;2023-08-12T01:01:39;18.20;1.00
5304;DHT22;2674;49.722;10.892;2023-08-12T01:04:07;18.10;1.00
5304;DHT22;2674;49.722;10.892;2023-08-12T01:06:33;18.10;1.00
5304;DHT22;2674;49.722;10.892;2023-08-12T01:08:59;18.00;1.00
5304;DHT22;2674;49.722;10.892;2023-08-12T01:17:03;18.00;1.00
5304;DHT22;2674;49.722;10.892;2023-08-12T01:19:37;18.00;1.00
5304;DHT22;2674;49.722;10.892;2023-08-12T01:22:05;18.00;1.00
5304;DHT22;2674;49.722;10.892;2023-08-12T01:24:35;18.10;1.00
5304;DHT22;2674;49.722;10.892;2023-08-12T01:27:02;18.10;99.90
5304;DHT22;2674;49.722;10.892;2023-08-12T01:29:28;18.10;99.90
5304;DHT22;2674;49.722;10.892;2023-08-12T01:35:20;18.10;99.90
5304;DHT22;2674;49.722;10.892;2023-08-12T01:37:49;18.10;99.90
5304;DHT22;2674;49.722;10.892;2023-08-12T01:40:17;18.10;99.90
5304;DHT22;2674;49.722;10.892;2023-08-12T01:42:45;18.10;21.20
5304;DHT22;2674;49.722;10.892;2023-08-12T01:45:11;18.00;99.90
5304;DHT22;2674;49.722;10.892;2023-08-12T01:47:37;18.10;99.90
5304;DHT22;2674;49.722;10.892;2023-08-12T01:50:03;18.10;1.00
5304;DHT22;2674;49.722;10.892;2023-08-12T01:52:29;18.20;99.90
5304;DHT22;2674;49.722;10.892;2023-08-12T01:54:55;18.20;99.90
5304;DHT22;2674;49.722;10.892;2023-08-12T01:57:21;18.30;1.00
5304;DHT22;2674;49.722;10.892;2023-08-12T01:59:47;18.30;1.00
5304;DHT22;2674;49.722;10.892;2023-08-12T02:02:13;18.30;1.00
5304;DHT22;2674;49.722;10.892;2023-08-12T02:04:40;18.30;1.00
5304;DHT22;2674;49.722;10.892;2023-08-12T02:07:06;18.20;1.00
5304;DHT22;2674;49.722;10.892;2023-08-12T02:09:31;18.20;1.00
5304;DHT22;2674;49.722;10.892;2023-08-12T02:11:57;18.10;1.00
5304;DHT22;2674;49.722;10.892;2023-08-12T02:14:23;18.20;99.90
5304;DHT22;2674;49.722;10.892;2023-08-12T02:16:49;18.20;1.00
5304;DHT22;2674;49.722;10.892;2023-08-12T02:19:15;18.10;1.00
5304;DHT22;2674;49.722;10.892;2023-08-12T02:21:42;18.10;90.40
5304;DHT22;2674;49.722;10.892;2023-08-12T02:24:08;18.10;1.00
5304;DHT22;2674;49.722;10.892;2023-08-12T02:26:34;18.00;1.00
5304;DHT22;2674;49.722;10.892;2023-08-12T02:29:00;18.00;1.00
5304;DHT22;2674;49.722;10.892;2023-08-12T02:31:26;18.00;1.00
5304;DHT22;2674;49.722;10.892;2023-08-12T02:33:52;18.10;1.00
5304;DHT22;2674;49.722;10.892;2023-08-12T02:36:18;18.10;99.90
5304;DHT22;2674;49.722;10.892;2023-08-12T02:38:44;18.10;99.90
5304;DHT22;2674;49.722;10.892;2023-08-12T02:41:10;18.00;1.00
5304;DHT22;2674;49.722;10.892;2023-08-12T02:43:36;18.00;99.90
5304;DHT22;2674;49.722;10.892;2023-08-12T02:46:02;17.90;1.00
5304;DHT22;2674;49.722;10.892;2023-08-12T02:48:27;17.90;14.30
5304;DHT22;2674;49.722;10.892;2023-08-12T02:50:53;17.90;99.90
5304;DHT22;2674;49.722;10.892;2023-08-12T02:53:19;17.80;99.90
5304;DHT22;2674;49.722;10.892;2023-08-12T02:55:45;17.80;99.90
5304;DHT22;2674;49.722;10.892;2023-08-12T02:58:11;17.80;99.90
5304;DHT22;2674;49.722;10.892;2023-08-12T03:00:37;17.80;99.90
5304;DHT22;2674;49.722;10.892;2023-08-12T03:03:06;17.70;99.90
5304;DHT22;2674;49.722;10.892;2023-08-12T03:05:32;17.70;99.90
5304;DHT22;2674;49.722;10.892;2023-08-12T03:07:58;17.70;99.90
5304;DHT22;2674;49.722;10.892;2023-08-12T03:10:27;17.70;99.90
5304;DHT22;2674;49.722;10.892;2023-08-12T03:12:52;17.70;99.90
5304;DHT22;2674;49.722;10.892;2023-08-12T03:15:19;17.70;99.90
5304;DHT22;2674;49.722;10.892;2023-08-12T03:17:45;17.80;99.90
5304;DHT22;2674;49.722;10.892;2023-08-12T03:20:11;17.80;9.70
5304;DHT22;2674;49.722;10.892;2023-08-12T03:22:37;17.80;1.00
5304;DHT22;2674;49.722;10.892;2023-08-12T03:25:04;17.80;1.00
5304;DHT22;2674;49.722;10.892;2023-08-12T03:27:30;17.80;1.00
5304;DHT22;2674;49.722;10.892;2023-08-12T03:29:56;17.70;99.90
5304;DHT22;2674;49.722;10.892;2023-08-12T03:32:23;17.70;99.90
5304;DHT22;2674;49.722;10.892;2023-08-12T03:34:49;17.70;99.90
5304;DHT22;2674;49.722;10.892;2023-08-12T03:37:15;17.70;1.00
5304;DHT22;2674;49.722;10.892;2023-08-12T03:39:41;17.60;1.00
5304;DHT22;2674;49.722;10.892;2023-08-12T03:42:07;17.60;1.00
5304;DHT22;2674;49.722;10.892;2023-08-12T03:44:32;17.60;1.00
5304;DHT22;2674;49.722;10.892;2023-08-12T03:46:58;17.50;1.00
5304;DHT22;2674;49.722;10.892;2023-08-12T03:49:24;17.50;1.00
5304;DHT22;2674;49.722;10.892;2023-08-12T03:51:50;17.50;1.00
5304;DHT22;2674;49.722;10.892;2023-08-12T03:54:15;17.50;1.00
5304;DHT22;2674;49.722;10.892;2023-08-12T03:56:41;17.50;1.00
5304;DHT22;2674;49.722;10.892;2023-08-12T03:59:07;17.50;1.00
5304;DHT22;2674;49.722;10.892;2023-08-12T04:01:33;17.50;1.00
5304;DHT22;2674;49.722;10.892;2023-08-12T04:03:59;17.50;1.00
5304;DHT22;2674;49.722;10.892;2023-08-12T04:06:25;17.50;1.00
5304;DHT22;2674;49.722;10.892;2023-08-12T04:08:50;17.50;1.00
5304;DHT22;2674;49.722;10.892;2023-08-12T04:11:16;17.50;1.00
5304;DHT22;2674;49.722;10.892;2023-08-12T04:13:42;17.50;99.90
5304;DHT22;2674;49.722;10.892;2023-08-12T04:16:08;17.50;99.90
5304;DHT22;2674;49.722;10.892;2023-08-12T04:18:34;17.60;1.00
5304;DHT22;2674;49.722;10.892;2023-08-12T04:20:59;17.60;99.90
5304;DHT22;2674;49.722;10.892;2023-08-12T04:23:25;17.60;99.90
5304;DHT22;2674;49.722;10.892;2023-08-12T04:25:52;17.70;1.00
5304;DHT22;2674;49.722;10.892;2023-08-12T04:28:19;17.70;1.00
5304;DHT22;2674;49.722;10.892;2023-08-12T04:30:47;17.70;99.90
5304;DHT22;2674;49.722;10.892;2023-08-12T04:33:14;17.70;99.90
5304;DHT22;2674;49.722;10.892;2023-08-12T04:35:40;17.70;1.00
5304;DHT22;2674;49.722;10.892;2023-08-12T04:38:06;17.80;1.00
5304;DHT22;2674;49.722;10.892;2023-08-12T04:40:32;17.80;1.00
5304;DHT22;2674;49.722;10.892;2023-08-12T04:42:59;17.80;1.00
5304;DHT22;2674;49.722;10.892;2023-08-12T04:45:25;17.80;1.00
5304;DHT22;2674;49.722;10.892;2023-08-12T04:47:51;17.90;1.00
5304;DHT22;2674;49.722;10.892;2023-08-12T04:50:17;17.90;1.00
5304;DHT22;2674;49.722;10.892;2023-08-12T04:52:43;17.90;1.00
5304;DHT22;2674;49.722;10.892;2023-08-12T04:55:09;18.00;99.90
5304;DHT22;2674;49.722;10.892;2023-08-12T04:57:38;18.10;28.70
5304;DHT22;2674;49.722;10.892;2023-08-12T05:00:04;18.20;1.00
5304;DHT22;2674;49.722;10.892;2023-08-12T05:02:34;18.40;99.90
5304;DHT22;2674;49.722;10.892;2023-08-12T05:05:00;18.60;99.90
5304;DHT22;2674;49.722;10.892;2023-08-12T05:07:26;19.00;99.90
5304;DHT22;2674;49.722;10.892;2023-08-12T05:09:52;19.10;59.40
5304;DHT22;2674;49.722;10.892;2023-08-12T05:12:18;19.20;1.00
5304;DHT22;2674;49.722;10.892;2023-08-12T05:14:44;19.30;99.90
5304;DHT22;2674;49.722;10.892;2023-08-12T05:17:09;19.60;99.90
5304;DHT22;2674;49.722;10.892;2023-08-12T05:19:35;19.90;99.90
5304;DHT22;2674;49.722;10.892;2023-08-12T05:22:01;20.10;1.00
5304;DHT22;2674;49.722;10.892;2023-08-12T05:24:27;20.40;99.90
5304;DHT22;2674;49.722;10.892;2023-08-12T05:26:53;20.60;1.00
5304;DHT22;2674;49.722;10.892;2023-08-12T05:29:19;20.70;1.00
5304;DHT22;2674;49.722;10.892;2023-08-12T05:31:44;20.90;1.00
5304;DHT22;2674;49.722;10.892;2023-08-12T05:34:10;21.00;1.00
5304;DHT22;2674;49.722;10.892;2023-08-12T05:36:36;21.10;1.00
5304;DHT22;2674;49.722;10.892;2023-08-12T05:39:02;21.20;99.90
5304;DHT22;2674;49.722;10.892;2023-08-12T05:41:29;21.00;99.90
5304;DHT22;2674;49.722;10.892;2023-08-12T05:43:55;21.00;99.90
5304;DHT22;2674;49.722;10.892;2023-08-12T05:46:20;20.80;99.90
5304;DHT22;2674;49.722;10.892;2023-08-12T05:48:46;20.80;99.90
5304;DHT22;2674;49.722;10.892;2023-08-12T05:51:12;20.70;1.00
5304;DHT22;2674;49.722;10.892;2023-08-12T05:53:41;20.50;99.90
5304;DHT22;2674;49.722;10.892;2023-08-12T05:56:07;20.50;99.90
5304;DHT22;2674;49.722;10.892;2023-08-12T05:58:32;20.30;1.00
5304;DHT22;2674;49.722;10.892;2023-08-12T06:00:58;20.30;1.00
5304;DHT22;2674;49.722;10.892;2023-08-12T06:03:24;20.20;1.00
5304;DHT22;2674;49.722;10.892;2023-08-12T06:05:50;20.20;1.00
5304;DHT22;2674;49.722;10.892;2023-08-12T06:08:16;20.20;1.00
5304;DHT22;2674;49.722;10.892;2023-08-12T06:10:42;20.20;1.00
5304;DHT22;2674;49.722;10.892;2023-08-12T06:13:08;20.20;1.00
5304;DHT22;2674;49.722;10.892;2023-08-12T06:15:34;20.20;1.00
5304;DHT22;2674;49.722;10.892;2023-08-12T06:18:00;20.20;1.00
5304;DHT22;2674;49.722;10.892;2023-08-12T06:20:26;20.30;1.00
5304;DHT22;2674;49.722;10.892;2023-08-12T06:22:52;20.30;1.00
5304;DHT22;2674;49.722;10.892;2023-08-12T06:25:19;20.40;99.90
5304;DHT22;2674;49.722;10.892;2023-08-12T06:27:45;20.40;99.90
5304;DHT22;2674;49.722;10.892;2023-08-12T06:30:12;20.50;99.90
5304;DHT22;2674;49.722;10.892;2023-08-12T06:32:38;20.60;1.00
5304;DHT22;2674;49.722;10.892;2023-08-12T06:35:04;20.70;99.90
5304;DHT22;2674;49.722;10.892;2023-08-12T06:37:30;20.70;99.90
5304;DHT22;2674;49.722;10.892;2023-08-12T06:39:56;20.80;99.90
5304;DHT22;2674;49.722;10.892;2023-08-12T06:42:22;20.90;99.90
5304;DHT22;2674;49.722;10.892;2023-08-12T06:44:58;21.00;99.90
5304;DHT22;2674;49.722;10.892;2023-08-12T06:47:24;21.00;99.90
5304;DHT22;2674;49.722;10.892;2023-08-12T06:49:51;21.00;99.90
5304;DHT22;2674;49.722;10.892;2023-08-12T06:52:17;21.10;99.90
5304;DHT22;2674;49.722;10.892;2023-08-12T06:54:43;21.10;99.90
5304;DHT22;2674;49.722;10.892;2023-08-12T06:57:09;21.20;99.90
5304;DHT22;2674;49.722;10.892;2023-08-12T06:59:40;21.20;99.90
5304;DHT22;2674;49.722;10.892;2023-08-12T07:02:06;21.20;99.90
5304;DHT22;2674;49.722;10.892;2023-08-12T07:04:32;21.30;99.90
5304;DHT22;2674;49.722;10.892;2023-08-12T07:06:59;21.20;99.90
5304;DHT22;2674;49.722;10.892;2023-08-12T07:09:25;21.20;99.90
5304;DHT22;2674;49.722;10.892;2023-08-12T07:11:50;21.20;99.90
5304;DHT22;2674;49.722;10.892;2023-08-12T07:14:16;21.10;99.90
5304;DHT22;2674;49.722;10.892;2023-08-12T07:16:42;21.20;99.90
5304;DHT22;2674;49.722;10.892;2023-08-12T07:19:08;21.20;1.00
5304;DHT22;2674;49.722;10.892;2023-08-12T07:21:34;21.20;99.90
5304;DHT22;2674;49.722;10.892;2023-08-12T07:23:59;21.20;99.90
5304;DHT22;2674;49.722;10.892;2023-08-12T07:26:25;21.30;99.90
5304;DHT22;2674;49.722;10.892;2023-08-12T07:28:51;21.30;99.90
5304;DHT22;2674;49.722;10.892;2023-08-12T07:31:17;21.50;99.90
5304;DHT22;2674;49.722;10.892;2023-08-12T07:33:43;21.60;99.90
5304;DHT22;2674;49.722;10.892;2023-08-12T07:36:09;21.70;99.90
5304;DHT22;2674;49.722;10.892;2023-08-12T07:38:35;21.80;99.90
5304;DHT22;2674;49.722;10.892;2023-08-12T07:41:01;21.90;99.90
5304;DHT22;2674;49.722;10.892;2023-08-12T07:43:27;22.10;99.90
5304;DHT22;2674;49.722;10.892;2023-08-12T07:45:53;22.20;99.90
5304;DHT22;2674;49.722;10.892;2023-08-12T07:48:22;22.30;99.90
5304;DHT22;2674;49.722;10.892;2023-08-12T07:50:57;22.30;99.90
5304;DHT22;2674;49.722;10.892;2023-08-12T07:53:24;22.40;98.80
5304;DHT22;2674;49.722;10.892;2023-08-12T07:55:50;22.40;54.30
5304;DHT22;2674;49.722;10.892;2023-08-12T07:58:15;22.40;99.90
5304;DHT22;2674;49.722;10.892;2023-08-12T08:00:41;22.50;1.00
5304;DHT22;2674;49.722;10.892;2023-08-12T08:03:07;22.50;33.80
5304;DHT22;2674;49.722;10.892;2023-08-12T08:05:33;22.50;5.10
5304;DHT22;2674;49.722;10.892;2023-08-12T08:07:58;22.50;99.90
5304;DHT22;2674;49.722;10.892;2023-08-12T08:10:24;22.50;84.90
5304;DHT22;2674;49.722;10.892;2023-08-12T08:12:50;22.50;1.00
5304;DHT22;2674;49.722;10.892;2023-08-12T08:15:16;22.60;99.90
5304;DHT22;2674;49.722;10.892;2023-08-12T08:17:42;22.60;1.00
5304;DHT22;2674;49.722;10.892;2023-08-12T08:20:08;22.60;89.20
5304;DHT22;2674;49.722;10.892;2023-08-12T08:22:36;22.70;99.90
5304;DHT22;2674;49.722;10.892;2023-08-12T08:25:02;22.70;99.90
5304;DHT22;2674;49.722;10.892;2023-08-12T08:27:28;22.70;99.90
5304;DHT22;2674;49.722;10.892;2023-08-12T08:29:54;22.60;99.90
5304;DHT22;2674;49.722;10.892;2023-08-12T08:32:19;22.60;99.90
5304;DHT22;2674;49.722;10.892;2023-08-12T08:34:46;22.70;99.90
5304;DHT22;2674;49.722;10.892;2023-08-12T08:37:12;22.90;99.90
5304;DHT22;2674;49.722;10.892;2023-08-12T08:39:38;23.00;72.20
5304;DHT22;2674;49.722;10.892;2023-08-12T08:42:05;23.20;1.00
5304;DHT22;2674;49.722;10.892;2023-08-12T08:44:33;23.30;1.00
5304;DHT22;2674;49.722;10.892;2023-08-12T08:47:00;23.50;1.00
5304;DHT22;2674;49.722;10.892;2023-08-12T08:49:28;23.50;1.00
5304;DHT22;2674;49.722;10.892;2023-08-12T08:51:55;23.60;1.00
5304;DHT22;2674;49.722;10.892;2023-08-12T08:54:21;23.70;1.00
5304;DHT22;2674;49.722;10.892;2023-08-12T08:56:49;23.80;1.00
5304;DHT22;2674;49.722;10.892;2023-08-12T08:59:15;23.90;1.00
5304;DHT22;2674;49.722;10.892;2023-08-12T09:01:42;23.90;1.00
5304;DHT22;2674;49.722;10.892;2023-08-12T09:04:09;24.00;1.00
5304;DHT22;2674;49.722;10.892;2023-08-12T09:06:36;24.00;1.00
5304;DHT22;2674;49.722;10.892;2023-08-12T09:09:07;24.20;1.00
5304;DHT22;2674;49.722;10.892;2023-08-12T09:11:38;24.50;1.00
5304;DHT22;2674;49.722;10.892;2023-08-12T09:14:05;24.80;1.00
5304;DHT22;2674;49.722;10.892;2023-08-12T09:16:31;25.10;1.00
5304;DHT22;2674;49.722;10.892;2023-08-12T09:18:57;25.20;1.00
5304;DHT22;2674;49.722;10.892;2023-08-12T09:21:23;25.40;1.00
5304;DHT22;2674;49.722;10.892;2023-08-12T09:23:49;25.40;1.00
5304;DHT22;2674;49.722;10.892;2023-08-12T09:26:19;25.50;1.00
5304;DHT22;2674;49.722;10.892;2023-08-12T09:28:46;25.60;1.00
5304;DHT22;2674;49.722;10.892;2023-08-12T09:33:52;26.00;1.00
5304;DHT22;2674;49.722;10.892;2023-08-12T09:36:20;26.30;1.00
5304;DHT22;2674;49.722;10.892;2023-08-12T09:38:46;26.50;1.00
5304;DHT22;2674;49.722;10.892;2023-08-12T09:41:12;26.60;1.00
5304;DHT22;2674;49.722;10.892;2023-08-12T09:43:44;26.80;1.00
5304;DHT22;2674;49.722;10.892;2023-08-12T09:46:11;27.00;1.00
5304;DHT22;2674;49.722;10.892;2023-08-12T09:48:40;27.10;1.00
5304;DHT22;2674;49.722;10.892;2023-08-12T09:51:07;27.30;1.00
5304;DHT22;2674;49.722;10.892;2023-08-12T09:53:33;27.30;1.00
5304;DHT22;2674;49.722;10.892;2023-08-12T09:56:11;27.50;1.00
5304;DHT22;2674;49.722;10.892;2023-08-12T09:58:37;27.70;1.00
5304;DHT22;2674;49.722;10.892;2023-08-12T10:01:06;27.80;1.00
5304;DHT22;2674;49.722;10.892;2023-08-12T10:03:33;27.90;1.00
5304;DHT22;2674;49.722;10.892;2023-08-12T10:06:01;28.10;1.00
5304;DHT22;2674;49.722;10.892;2023-08-12T10:08:28;28.30;1.00
5304;DHT22;2674;49.722;10.892;2023-08-12T10:10:55;28.60;1.00
5304;DHT22;2674;49.722;10.892;2023-08-12T10:13:24;28.60;1.00
5304;DHT22;2674;49.722;10.892;2023-08-12T10:15:50;28.70;1.00
5304;DHT22;2674;49.722;10.892;2023-08-12T10:18:18;28.80;99.90
5304;DHT22;2674;49.722;10.892;2023-08-12T10:20:45;28.90;99.90
5304;DHT22;2674;49.722;10.892;2023-08-12T10:23:15;28.90;99.90
5304;DHT22;2674;49.722;10.892;2023-08-12T10:25:43;29.00;99.90
5304;DHT22;2674;49.722;10.892;2023-08-12T10:28:10;29.10;99.90
5304;DHT22;2674;49.722;10.892;2023-08-12T10:30:36;29.10;99.90
5304;DHT22;2674;49.722;10.892;2023-08-12T10:33:04;29.00;99.90
5304;DHT22;2674;49.722;10.892;2023-08-12T10:35:48;28.80;99.90
5304;DHT22;2674;49.722;10.892;2023-08-12T10:38:18;28.70;99.90
5304;DHT22;2674;49.722;10.892;2023-08-12T10:40:46;28.40;99.90
5304;DHT22;2674;49.722;10.892;2023-08-12T10:43:13;28.50;99.90
5304;DHT22;2674;49.722;10.892;2023-08-12T10:45:47;28.70;99.90
5304;DHT22;2674;49.722;10.892;2023-08-12T10:48:18;28.90;99.90
5304;DHT22;2674;49.722;10.892;2023-08-12T10:50:53;29.10;99.90
5304;DHT22;2674;49.722;10.892;2023-08-12T10:53:28;29.00;99.90
5304;DHT22;2674;49.722;10.892;2023-08-12T10:56:11;29.10;99.90
5304;DHT22;2674;49.722;10.892;2023-08-12T10:58:47;28.90;99.90
5304;DHT22;2674;49.722;10.892;2023-08-12T11:01:19;28.90;99.90
5304;DHT22;2674;49.722;10.892;2023-08-12T11:03:47;28.90;99.90
5304;DHT22;2674;49.722;10.892;2023-08-12T11:06:13;29.00;99.90
5304;DHT22;2674;49.722;10.892;2023-08-12T11:08:47;29.00;99.90
5304;DHT22;2674;49.722;10.892;2023-08-12T11:11:20;29.30;99.90
5304;DHT22;2674;49.722;10.892;2023-08-12T11:13:56;29.50;99.90
5304;DHT22;2674;49.722;10.892;2023-08-12T11:16:36;29.50;99.90
5304;DHT22;2674;49.722;10.892;2023-08-12T11:19:04;29.50;99.90
5304;DHT22;2674;49.722;10.892;2023-08-12T11:21:30;29.70;99.90
5304;DHT22;2674;49.722;10.892;2023-08-12T11:23:56;29.70;99.90
5304;DHT22;2674;49.722;10.892;2023-08-12T11:26:26;29.80;99.90
5304;DHT22;2674;49.722;10.892;2023-08-12T11:28:53;29.90;99.90
5304;DHT22;2674;49.722;10.892;2023-08-12T11:31:19;29.90;99.90
5304;DHT22;2674;49.722;10.892;2023-08-12T11:33:45;30.00;99.90
5304;DHT22;2674;49.722;10.892;2023-08-12T11:36:10;30.10;99.90
5304;DHT22;2674;49.722;10.892;2023-08-12T11:38:37;30.10;99.90
5304;DHT22;2674;49.722;10.892;2023-08-12T11:41:03;30.10;99.90
5304;DHT22;2674;49.722;10.892;2023-08-12T11:43:29;30.10;99.90
5304;DHT22;2674;49.722;10.892;2023-08-12T11:45:57;30.10;99.90
5304;DHT22;2674;49.722;10.892;2023-08-12T11:48:24;30.20;99.90
5304;DHT22;2674;49.722;10.892;2023-08-12T11:50:50;30.40;99.90
5304;DHT22;2674;49.722;10.892;2023-08-12T11:53:16;30.50;99.90
5304;DHT22;2674;49.722;10.892;2023-08-12T11:55:42;30.50;99.90
5304;DHT22;2674;49.722;10.892;2023-08-12T11:58:09;30.50;99.90
5304;DHT22;2674;49.722;10.892;2023-08-12T12:00:39;30.70;99.90
5304;DHT22;2674;49.722;10.892;2023-08-12T12:03:06;30.70;99.90
5304;DHT22;2674;49.722;10.892;2023-08-12T12:05:32;30.70;99.90
5304;DHT22;2674;49.722;10.892;2023-08-12T12:08:01;30.80;99.90
5304;DHT22;2674;49.722;10.892;2023-08-12T12:10:29;30.80;99.90
5304;DHT22;2674;49.722;10.892;2023-08-12T12:12:56;30.80;99.90
5304;DHT22;2674;49.722;10.892;2023-08-12T12:15:22;30.80;99.90
5304;DHT22;2674;49.722;10.892;2023-08-12T12:17:49;31.00;99.90
5304;DHT22;2674;49.722;10.892;2023-08-12T12:20:16;31.10;99.90
5304;DHT22;2674;49.722;10.892;2023-08-12T12:22:43;31.20;99.90
5304;DHT22;2674;49.722;10.892;2023-08-12T12:25:14;31.20;99.90
5304;DHT22;2674;49.722;10.892;2023-08-12T12:27:42;31.50;99.90
5304;DHT22;2674;49.722;10.892;2023-08-12T12:30:09;31.50;99.90
5304;DHT22;2674;49.722;10.892;2023-08-12T12:32:36;31.60;99.90
5304;DHT22;2674;49.722;10.892;2023-08-12T12:35:02;31.60;99.90
5304;DHT22;2674;49.722;10.892;2023-08-12T12:37:29;31.60;99.90
5304;DHT22;2674;49.722;10.892;2023-08-12T12:39:55;31.70;99.90
5304;DHT22;2674;49.722;10.892;2023-08-12T12:42:21;31.70;99.90
5304;DHT22;2674;49.722;10.892;2023-08-12T12:44:46;32.00;99.90
5304;DHT22;2674;49.722;10.892;2023-08-12T12:47:12;31.90;99.90
5304;DHT22;2674;49.722;10.892;2023-08-12T12:49:39;31.90;99.90
5304;DHT22;2674;49.722;10.892;2023-08-12T12:52:07;32.00;99.90
5304;DHT22;2674;49.722;10.892;2023-08-12T12:54:33;32.00;99.90
5304;DHT22;2674;49.722;10.892;2023-08-12T12:56:59;31.80;99.90
5304;DHT22;2674;49.722;10.892;2023-08-12T12:59:25;31.60;99.90
5304;DHT22;2674;49.722;10.892;2023-08-12T13:01:51;31.50;99.90
5304;DHT22;2674;49.722;10.892;2023-08-12T13:04:17;31.30;99.90
5304;DHT22;2674;49.722;10.892;2023-08-12T13:06:43;31.30;99.90
5304;DHT22;2674;49.722;10.892;2023-08-12T13:09:09;31.10;99.90
5304;DHT22;2674;49.722;10.892;2023-08-12T13:11:34;31.00;99.90
5304;DHT22;2674;49.722;10.892;2023-08-12T13:14:01;30.90;99.90
5304;DHT22;2674;49.722;10.892;2023-08-12T13:16:28;30.90;99.90
5304;DHT22;2674;49.722;10.892;2023-08-12T13:18:54;31.00;99.90
5304;DHT22;2674;49.722;10.892;2023-08-12T13:21:19;31.10;99.90
5304;DHT22;2674;49.722;10.892;2023-08-12T13:23:45;31.10;99.90
5304;DHT22;2674;49.722;10.892;2023-08-12T13:26:11;31.10;99.90
5304;DHT22;2674;49.722;10.892;2023-08-12T13:28:37;31.30;99.90
5304;DHT22;2674;49.722;10.892;2023-08-12T13:31:03;31.20;99.90
5304;DHT22;2674;49.722;10.892;2023-08-12T13:33:29;31.20;99.90
5304;DHT22;2674;49.722;10.892;2023-08-12T13:35:54;31.20;99.90
5304;DHT22;2674;49.722;10.892;2023-08-12T13:38:20;31.10;99.90
5304;DHT22;2674;49.722;10.892;2023-08-12T13:40:46;30.80;99.90
5304;DHT22;2674;49.722;10.892;2023-08-12T13:43:12;30.10;99.90
5304;DHT22;2674;49.722;10.892;2023-08-12T13:45:37;28.70;99.90
5304;DHT22;2674;49.722;10.892;2023-08-12T13:48:03;27.30;99.90
5304;DHT22;2674;49.722;10.892;2023-08-12T13:50:30;26.30;99.90
5304;DHT22;2674;49.722;10.892;2023-08-12T13:52:58;25.20;1.00
5304;DHT22;2674;49.722;10.892;2023-08-12T13:55:25;24.40;1.00
5304;DHT22;2674;49.722;10.892;2023-08-12T13:57:51;23.80;1.00
5304;DHT22;2674;49.722;10.892;2023-08-12T14:00:17;23.40;99.90
5304;DHT22;2674;49.722;10.892;2023-08-12T14:02:43;22.90;1.00
5304;DHT22;2674;49.722;10.892;2023-08-12T14:05:09;22.20;1.00
5304;DHT22;2674;49.722;10.892;2023-08-12T14:07:36;21.80;1.00
5304;DHT22;2674;49.722;10.892;2023-08-12T14:10:03;21.30;10.90
5304;DHT22;2674;49.722;10.892;2023-08-12T14:12:29;20.90;1.00
5304;DHT22;2674;49.722;10.892;2023-08-12T14:14:55;20.60;1.00
5304;DHT22;2674;49.722;10.892;2023-08-12T14:17:20;20.30;52.90
5304;DHT22;2674;49.722;10.892;2023-08-12T14:19:49;20.00;99.90
5304;DHT22;2674;49.722;10.892;2023-08-12T14:22:17;20.00;99.90
5304;DHT22;2674;49.722;10.892;2023-08-12T14:24:43;20.00;99.90
5304;DHT22;2674;49.722;10.892;2023-08-12T14:27:10;20.10;99.90
5304;DHT22;2674;49.722;10.892;2023-08-12T14:29:36;20.10;99.90
5304;DHT22;2674;49.722;10.892;2023-08-12T14:32:01;20.20;99.90
5304;DHT22;2674;49.722;10.892;2023-08-12T14:34:27;20.20;99.90
5304;DHT22;2674;49.722;10.892;2023-08-12T14:36:53;20.30;99.90
5304;DHT22;2674;49.722;10.892;2023-08-12T14:39:19;20.30;99.90
5304;DHT22;2674;49.722;10.892;2023-08-12T14:41:44;20.30;99.90
5304;DHT22;2674;49.722;10.892;2023-08-12T14:44:10;20.30;99.90
5304;DHT22;2674;49.722;10.892;2023-08-12T14:46:36;20.20;99.90
5304;DHT22;2674;49.722;10.892;2023-08-12T14:49:02;20.30;99.90
5304;DHT22;2674;49.722;10.892;2023-08-12T14:51:28;20.30;99.90
5304;DHT22;2674;49.722;10.892;2023-08-12T14:53:55;20.30;99.90
5304;DHT22;2674;49.722;10.892;2023-08-12T14:56:21;20.20;99.90
5304;DHT22;2674;49.722;10.892;2023-08-12T14:58:47;20.20;99.90
5304;DHT22;2674;49.722;10.892;2023-08-12T15:01:13;20.20;99.90
5304;DHT22;2674;49.722;10.892;2023-08-12T15:03:39;20.30;99.90
5304;DHT22;2674;49.722;10.892;2023-08-12T15:06:05;20.30;99.90
5304;DHT22;2674;49.722;10.892;2023-08-12T15:08:31;20.20;99.90
5304;DHT22;2674;49.722;10.892;2023-08-12T15:10:58;20.20;99.90
5304;DHT22;2674;49.722;10.892;2023-08-12T15:13:24;20.20;99.90
5304;DHT22;2674;49.722;10.892;2023-08-12T15:15:50;20.20;99.90
5304;DHT22;2674;49.722;10.892;2023-08-12T15:18:17;20.20;99.90
5304;DHT22;2674;49.722;10.892;2023-08-12T15:20:43;20.20;99.90
5304;DHT22;2674;49.722;10.892;2023-08-12T15:23:09;20.20;99.90
5304;DHT22;2674;49.722;10.892;2023-08-12T15:25:35;20.10;99.90
5304;DHT22;2674;49.722;10.892;2023-08-12T15:28:01;20.10;99.90
5304;DHT22;2674;49.722;10.892;2023-08-12T15:30:28;20.20;99.90
5304;DHT22;2674;49.722;10.892;2023-08-12T15:32:54;20.20;99.90
5304;DHT22;2674;49.722;10.892;2023-08-12T15:35:20;20.30;99.90
5304;DHT22;2674;49.722;10.892;2023-08-12T15:37:46;20.40;99.90
5304;DHT22;2674;49.722;10.892;2023-08-12T15:40:12;20.30;99.90
5304;DHT22;2674;49.722;10.892;2023-08-12T15:42:39;20.20;99.90
5304;DHT22;2674;49.722;10.892;2023-08-12T15:45:05;20.20;99.90
5304;DHT22;2674;49.722;10.892;2023-08-12T15:47:31;20.20;99.90
5304;DHT22;2674;49.722;10.892;2023-08-12T15:49:58;20.30;99.90
5304;DHT22;2674;49.722;10.892;2023-08-12T15:52:24;20.20;99.90
5304;DHT22;2674;49.722;10.892;2023-08-12T15:54:50;20.20;99.90
5304;DHT22;2674;49.722;10.892;2023-08-12T15:57:16;20.20;99.90
5304;DHT22;2674;49.722;10.892;2023-08-12T15:59:41;20.20;99.90